Information Last Ob Photographs Calibration Meteogram Network Table Neighbors Monthly Summaries Observation History Wind Roses Custom Wind Roses Data Calendar Satellite Cloud Product Download

Most Recent Observation

This application displays the last observation received by the IEM from this site. The time stamp is in America/Chicago timezone.

Observation Local Time29 Feb 2024, 1:15 AM
Observation UTC Time2024-02-29T07:15:00Z
Air Temp [F]17.6
Maximum Air Temperature [F]17.6
Minimum Air Temperature [F]15.8
Dew Point [F]6.8
Wind DirectionSE (140 degrees)
Wind Speed [knots]8
Altimeter [inches]30.23
Raw Observation/ProductKAXA 290715Z AUTO 14008KT 10SM CLR M08/M14 A3023 RMK A01
Cloud Layer 1: CLR ( feet)

This data was provided by a JSON(P) webservice. You can find more JSON services.